Time;durP1;ratioP1;P1;durP2;ratioP2;P2;SDS_P1;SDS_P2;PMS_P1;PMS_P2;Temp;Humidity;BMP_temperature;BMP_pressure;BME280_temperature;BME280_humidity;BME280_pressure;Samples;Min_cycle;Max_cycle;Signal;HPM_P1;HPM_P2
2022/04/26 03:36:48;;;;;;;68.80;37.20;;;6.30;99.90;;;;;;5095406;28;20066;-71
2022/04/26 03:39:13;;;;;;;67.45;37.28;;;6.20;99.90;;;;;;5095467;28;20058;-71
2022/04/26 03:41:39;;;;;;;69.55;37.80;;;6.20;99.90;;;;;;5095429;28;20505;-71
2022/04/26 03:44:04;;;;;;;64.82;37.05;;;6.10;99.90;;;;;;5095461;28;20024;-71
2022/04/26 03:46:30;;;;;;;72.57;38.38;;;6.00;99.90;;;;;;5096918;28;20024;-71
2022/04/26 03:48:55;;;;;;;61.78;35.13;;;6.00;99.90;;;;;;5094003;28;20044;-71
2022/04/26 03:51:21;;;;;;;66.10;35.70;;;5.90;99.90;;;;;;5095362;28;20020;-71
2022/04/26 03:53:47;;;;;;;57.97;34.30;;;5.90;99.90;;;;;;5093926;28;20111;-71
2022/04/26 03:56:12;;;;;;;67.00;35.90;;;5.80;99.90;;;;;;5095190;28;20012;-71
2022/04/26 03:58:38;;;;;;;65.57;35.88;;;5.80;99.90;;;;;;5095163;28;20028;-71
2022/04/26 04:01:04;;;;;;;60.63;35.13;;;5.80;99.90;;;;;;5095139;28;20084;-71
2022/04/26 04:03:30;;;;;;;65.03;34.60;;;5.80;99.90;;;;;;5095026;28;20020;-71
2022/04/26 04:05:56;;;;;;;61.45;34.38;;;5.70;99.90;;;;;;5094965;28;20032;-71
2022/04/26 04:08:21;;;;;;;64.50;36.28;;;5.70;99.90;;;;;;5094908;28;20436;-71
2022/04/26 04:10:47;;;;;;;64.53;34.58;;;5.70;99.90;;;;;;5093647;28;20074;-72
2022/04/26 04:13:13;;;;;;;63.05;34.10;;;5.70;99.90;;;;;;5094803;28;20028;-72
2022/04/26 04:15:38;;;;;;;65.20;33.80;;;5.80;99.90;;;;;;5094827;28;20103;-71
2022/04/26 04:19:17;;;;;;;62.13;32.88;;;5.90;99.90;;;;;;5094708;28;20056;-71
2022/04/26 04:20:49;;;;;;;60.70;32.08;;;5.90;99.90;;;;;;5094558;28;20048;-71
2022/04/26 04:23:14;;;;;;;63.65;33.42;;;5.90;99.90;;;;;;5093470;28;20024;-71
2022/04/26 04:25:41;;;;;;;58.25;32.15;;;5.90;99.90;;;;;;5093416;28;20386;-71
2022/04/26 04:28:06;;;;;;;60.60;34.38;;;5.90;99.90;;;;;;5094476;28;20024;-71
2022/04/26 04:30:32;;;;;;;55.38;31.20;;;6.00;99.90;;;;;;5094402;28;20028;-71
2022/04/26 04:32:57;;;;;;;53.55;30.55;;;6.10;99.90;;;;;;5093736;28;20032;-71
2022/04/26 04:35:23;;;;;;;51.75;30.17;;;6.10;99.90;;;;;;5093080;28;20024;-71
2022/04/26 04:37:49;;;;;;;52.75;30.13;;;6.10;99.90;;;;;;5094328;28;20517;-71
2022/04/26 04:40:14;;;;;;;52.15;29.27;;;6.10;99.90;;;;;;5093033;28;20023;-71
2022/04/26 04:42:40;;;;;;;54.67;28.88;;;6.20;99.90;;;;;;5094320;28;20496;-71
2022/04/26 04:45:06;;;;;;;52.33;29.92;;;6.20;99.90;;;;;;5094345;28;20081;-71
2022/04/26 04:47:31;;;;;;;55.03;29.42;;;6.20;99.90;;;;;;5092983;28;20040;-70
2022/04/26 04:49:57;;;;;;;51.53;28.52;;;6.20;99.90;;;;;;5092857;28;20107;-71
2022/04/26 04:52:22;;;;;;;48.05;28.67;;;6.30;99.90;;;;;;5094230;28;20106;-71
2022/04/26 04:54:48;;;;;;;53.80;28.55;;;6.30;99.90;;;;;;5075889;28;20020;-71
2022/04/26 04:57:13;;;;;;;48.88;29.05;;;6.30;99.90;;;;;;5093969;28;20024;-71
2022/04/26 04:59:39;;;;;;;49.63;27.92;;;6.30;99.90;;;;;;5093985;28;20470;-71
2022/04/26 05:02:05;;;;;;;51.83;28.67;;;6.40;99.90;;;;;;5093003;28;20046;-71
2022/04/26 05:04:30;;;;;;;47.53;27.25;;;6.50;99.90;;;;;;5092574;28;20032;-71
2022/04/26 05:06:56;;;;;;;46.55;27.67;;;6.50;99.90;;;;;;5093818;28;20035;-71
2022/04/26 05:09:22;;;;;;;44.25;27.25;;;6.60;99.90;;;;;;5092520;28;20034;-71
2022/04/26 05:11:48;;;;;;;47.65;26.83;;;6.60;99.90;;;;;;5093728;28;20422;-71
2022/04/26 05:14:13;;;;;;;47.83;26.40;;;6.70;99.90;;;;;;5093854;28;20017;-71
2022/04/26 05:16:39;;;;;;;49.00;26.58;;;6.80;99.90;;;;;;5093661;28;20034;-71
2022/04/26 05:19:04;;;;;;;43.38;24.90;;;6.80;99.90;;;;;;5092405;28;20027;-71
2022/04/26 05:21:30;;;;;;;40.40;23.58;;;6.90;99.90;;;;;;5093554;28;20069;-71
2022/04/26 05:26:41;;;;;;;44.00;24.88;;;7.00;99.90;;;;;;5093315;28;20056;-71
2022/04/26 05:29:06;;;;;;;37.08;21.73;;;7.20;99.90;;;;;;5093489;28;20074;-72
2022/04/26 05:31:32;;;;;;;36.85;22.25;;;7.30;99.90;;;;;;5092219;28;20077;-72
2022/04/26 05:33:57;;;;;;;36.42;22.33;;;7.40;99.90;;;;;;5092076;28;20051;-71
2022/04/26 05:36:23;;;;;;;33.17;21.80;;;7.30;99.90;;;;;;5093457;28;20089;-72
2022/04/26 05:38:48;;;;;;;33.65;21.35;;;7.30;99.90;;;;;;5093340;28;20107;-72
2022/04/26 05:41:14;;;;;;;33.17;21.27;;;7.30;99.90;;;;;;5075283;28;20024;-71
2022/04/26 05:43:40;;;;;;;36.83;21.02;;;7.40;99.90;;;;;;5091784;28;20112;-72
2022/04/26 05:46:10;;;;;;;30.52;21.00;;;7.50;99.90;;;;;;5092906;28;20039;-72
2022/04/26 05:48:35;;;;;;;33.38;20.55;;;7.60;99.90;;;;;;5092949;28;20075;-72
2022/04/26 05:51:01;;;;;;;33.15;19.98;;;7.60;99.90;;;;;;5093212;28;20024;-72
2022/04/26 05:53:26;;;;;;;37.80;20.85;;;7.50;99.90;;;;;;5093112;28;20027;-71
2022/04/26 05:55:52;;;;;;;34.58;20.85;;;7.30;99.90;;;;;;5093073;28;20024;-72
2022/04/26 05:58:17;;;;;;;37.40;21.58;;;7.40;99.90;;;;;;5093006;28;20501;-71
2022/04/26 06:00:43;;;;;;;33.97;21.63;;;7.40;99.90;;;;;;5093085;28;20085;-72
2022/04/26 06:03:08;;;;;;;36.17;21.60;;;7.40;99.90;;;;;;5074923;28;20020;-72
2022/04/26 06:05:34;;;;;;;34.78;19.85;;;7.60;99.90;;;;;;5092984;28;20028;-71
2022/04/26 06:08:00;;;;;;;34.05;20.73;;;7.60;99.90;;;;;;5093040;28;20028;-71
2022/04/26 06:10:26;;;;;;;33.00;21.48;;;7.60;99.90;;;;;;5093074;28;20051;-72
2022/04/26 06:12:52;;;;;;;39.63;23.20;;;7.70;99.90;;;;;;5092097;28;20493;-72
2022/04/26 06:15:18;;;;;;;34.92;22.02;;;7.80;99.90;;;;;;5074829;28;20024;-72
2022/04/26 06:17:44;;;;;;;36.65;22.13;;;7.80;99.90;;;;;;5092945;28;20028;-72
2022/04/26 06:20:10;;;;;;;35.80;21.90;;;8.00;99.90;;;;;;5091638;28;20072;-72
2022/04/26 06:22:36;;;;;;;36.20;22.02;;;8.10;99.90;;;;;;5092856;28;20124;-72
2022/04/26 06:25:01;;;;;;;33.15;22.30;;;8.20;99.90;;;;;;5092899;28;20121;-72
2022/04/26 06:27:27;;;;;;;34.80;21.15;;;8.20;99.90;;;;;;5091711;28;20024;-72
2022/04/26 06:29:52;;;;;;;32.40;22.15;;;8.30;99.90;;;;;;5092981;28;20438;-72
2022/04/26 06:32:19;;;;;;;30.00;20.65;;;8.50;99.90;;;;;;5092822;28;20060;-72
2022/04/26 06:34:45;;;;;;;34.15;21.35;;;8.70;99.90;;;;;;5092839;28;20020;-72
2022/04/26 06:37:13;;;;;;;30.70;21.83;;;8.80;99.90;;;;;;5091462;28;20024;-72
2022/04/26 06:39:38;;;;;;;27.58;20.08;;;9.00;99.90;;;;;;5091745;28;20027;-72
2022/04/26 06:42:04;;;;;;;32.42;21.50;;;9.10;99.90;;;;;;5091544;28;20028;-72
2022/04/26 06:44:31;;;;;;;29.88;20.30;;;9.20;99.90;;;;;;5092824;28;20528;-72
2022/04/26 06:46:56;;;;;;;28.10;19.33;;;9.20;99.90;;;;;;5091245;28;20498;-72
2022/04/26 06:49:22;;;;;;;26.38;19.45;;;9.10;99.90;;;;;;5091302;28;20119;-73
2022/04/26 06:51:47;;;;;;;28.90;19.25;;;9.20;99.90;;;;;;5092543;28;20375;-72
2022/04/26 06:54:13;;;;;;;31.02;19.48;;;9.40;99.90;;;;;;5092670;28;20413;-72
2022/04/26 06:56:40;;;;;;;30.33;19.75;;;9.60;99.90;;;;;;5096349;28;20024;-73
2022/04/26 06:59:06;;;;;;;31.48;19.80;;;9.50;99.90;;;;;;5096278;28;20024;-72
2022/04/26 07:01:32;;;;;;;28.35;19.90;;;9.80;99.90;;;;;;5096331;28;20028;-73
2022/04/26 07:03:58;;;;;;;28.17;19.50;;;;;;;;;;5096175;28;20024;-72
2022/04/26 07:06:23;;;;;;;30.73;20.52;;;10.30;99.90;;;;;;5096159;28;20073;-73
2022/04/26 07:08:49;;;;;;;30.38;20.60;;;10.30;99.90;;;;;;5096057;28;20063;-73
2022/04/26 07:11:15;;;;;;;33.65;21.00;;;10.60;99.90;;;;;;5094825;28;20028;-72
2022/04/26 07:13:41;;;;;;;32.00;20.65;;;10.60;99.90;;;;;;5095878;28;20367;-73
2022/04/26 07:16:07;;;;;;;28.90;20.35;;;11.40;99.90;;;;;;5094816;28;20081;-72
2022/04/26 07:18:34;;;;;;;28.65;20.38;;;11.60;99.90;;;;;;5094716;28;20439;-73
2022/04/26 07:20:59;;;;;;;28.80;20.73;;;12.00;99.90;;;;;;5096013;28;20028;-72
2022/04/26 07:23:25;;;;;;;28.10;20.63;;;12.40;99.90;;;;;;5095886;28;20035;-73
2022/04/26 07:25:52;;;;;;;26.83;20.02;;;12.60;99.90;;;;;;5095800;28;20032;-73
2022/04/26 07:28:19;;;;;;;30.73;21.00;;;12.60;99.90;;;;;;5095644;28;20115;-73
2022/04/26 07:30:44;;;;;;;33.15;22.08;;;12.50;99.90;;;;;;5094432;28;20484;-73
2022/04/26 07:35:56;;;;;;;30.95;22.33;;;12.70;99.90;;;;;;5094396;28;20546;-73
2022/04/26 07:38:22;;;;;;;33.03;23.42;;;13.30;99.90;;;;;;5095359;28;20084;-74
2022/04/26 07:40:47;;;;;;;30.08;22.70;;;13.50;99.90;;;;;;5095313;28;20028;-73
2022/04/26 07:43:13;;;;;;;31.42;23.63;;;13.10;99.90;;;;;;5093874;28;20028;-73
2022/04/26 07:45:41;;;;;;;36.50;24.15;;;12.10;99.90;;;;;;5077239;28;20393;-73
2022/04/26 07:48:08;;;;;;;33.47;24.30;;;12.20;99.90;;;;;;5095029;28;20048;-73
2022/04/26 07:50:34;;;;;;;28.90;22.92;;;12.20;99.90;;;;;;5093902;28;20390;-73
2022/04/26 07:53:01;;;;;;;37.20;24.63;;;13.00;99.90;;;;;;5094086;28;20031;-73
2022/04/26 07:55:28;;;;;;;35.88;23.25;;;13.90;99.90;;;;;;5094050;28;20099;-73
2022/04/26 07:57:53;;;;;;;32.05;23.55;;;14.10;99.90;;;;;;5094889;28;20534;-73
2022/04/26 08:00:19;;;;;;;36.28;25.05;;;14.30;99.90;;;;;;5094943;28;20103;-74
2022/04/26 08:02:45;;;;;;;31.52;22.52;;;14.40;99.90;;;;;;5093757;28;20429;-74
2022/04/26 08:05:11;;;;;;;30.23;22.90;;;14.90;99.90;;;;;;5095040;28;20048;-73
2022/04/26 08:07:39;;;;;;;30.38;23.33;;;14.90;99.90;;;;;;5094781;28;20028;-74
2022/04/26 08:10:08;;;;;;;32.42;22.58;;;14.70;99.90;;;;;;5093702;28;20012;-73
2022/04/26 08:12:33;;;;;;;29.00;22.95;;;15.20;99.90;;;;;;5094832;28;20386;-74
2022/04/26 08:14:59;;;;;;;27.85;22.48;;;15.20;99.90;;;;;;5094854;28;20099;-73
2022/04/26 08:17:24;;;;;;;32.42;23.25;;;14.20;99.90;;;;;;5093611;28;20024;-74
2022/04/26 08:19:49;;;;;;;28.73;23.10;;;14.40;99.90;;;;;;5093454;28;20502;-74
2022/04/26 08:22:15;;;;;;;32.00;23.50;;;14.30;99.90;;;;;;5094523;28;20024;-74
2022/04/26 08:27:26;;;;;;;28.90;20.15;;;13.60;99.90;;;;;;5094311;28;20024;-74
2022/04/26 08:29:53;;;;;;;29.13;21.33;;;13.70;99.90;;;;;;5094579;28;20016;-73
2022/04/26 08:32:19;;;;;;;29.77;22.08;;;13.50;99.90;;;;;;5094456;28;20095;-73
2022/04/26 08:34:45;;;;;;;29.60;21.85;;;13.30;99.90;;;;;;5094411;28;20032;-74
2022/04/26 08:37:10;;;;;;;35.85;22.25;;;13.50;99.90;;;;;;5093090;28;20032;-75
2022/04/26 08:39:36;;;;;;;33.45;24.65;;;13.60;99.90;;;;;;5093065;28;20032;-73
2022/04/26 08:42:03;;;;;;;32.58;23.67;;;13.40;99.90;;;;;;5094245;28;20028;-73
2022/04/26 08:44:29;;;;;;;30.60;22.70;;;12.90;99.90;;;;;;5093104;28;20024;-73
2022/04/26 08:52:43;;;;;;;33.72;23.00;;;13.40;99.90;;;;;;5092864;28;20026;-73
2022/04/26 08:55:09;;;;;;;35.22;24.50;;;13.50;99.90;;;;;;5092674;28;20027;-73
2022/04/26 08:57:35;;;;;;;32.38;24.15;;;13.80;99.90;;;;;;5094014;28;20032;-73
2022/04/26 09:00:02;;;;;;;33.33;23.85;;;14.30;99.90;;;;;;5092651;28;20474;-73
2022/04/26 09:02:28;;;;;;;31.85;23.25;;;14.20;99.90;;;;;;5094114;28;20024;-73
2022/04/26 09:05:01;;;;;;;34.28;23.73;;;13.80;99.90;;;;;;5093852;28;20389;-74
2022/04/26 09:07:31;;;;;;;31.20;23.13;;;14.20;99.90;;;;;;5093789;28;20031;-73
2022/04/26 09:10:18;;;;;;;33.72;24.60;;;14.00;99.90;;;;;;5094010;28;20027;-74
2022/04/26 09:13:14;;;;;;;33.38;23.45;;;14.60;99.90;;;;;;5093762;28;20470;-73
2022/04/26 09:15:47;;;;;;;31.10;24.60;;;14.30;99.90;;;;;;5093685;28;20024;-73
2022/04/26 09:18:26;;;;;;;35.55;26.38;;;14.60;99.90;;;;;;5093176;28;20020;-74
2022/04/26 09:20:55;;;;;;;34.25;24.85;;;14.60;99.90;;;;;;5093482;28;20031;-74
2022/04/26 09:23:25;;;;;;;33.85;25.67;;;14.90;99.90;;;;;;5093510;28;20118;-74
2022/04/26 09:25:54;;;;;;;32.05;24.48;;;14.90;99.90;;;;;;5093471;28;20030;-74
2022/04/26 09:28:23;;;;;;;35.38;24.98;;;15.20;99.90;;;;;;5091940;28;20031;-74
2022/04/26 09:30:49;;;;;;;32.00;24.02;;;15.40;99.90;;;;;;5092077;28;20047;-74
2022/04/26 09:33:34;;;;;;;36.95;25.13;;;15.60;99.90;;;;;;5093414;28;20048;-74
2022/04/26 09:36:01;;;;;;;35.35;24.58;;;16.20;99.90;;;;;;5093414;28;20420;-74
2022/04/26 09:38:31;;;;;;;34.08;25.30;;;16.10;99.90;;;;;;5093540;28;20028;-74
2022/04/26 09:40:59;;;;;;;34.05;24.65;;;16.10;99.90;;;;;;5093374;28;20025;-74
2022/04/26 09:43:26;;;;;;;34.88;24.95;;;15.90;99.90;;;;;;5093564;28;20077;-74
2022/04/26 09:45:57;;;;;;;31.30;24.10;;;16.50;99.90;;;;;;5091801;28;20034;-74
2022/04/26 09:48:29;;;;;;;34.72;25.20;;;16.90;99.90;;;;;;5092876;28;20047;-74
2022/04/26 09:50:57;;;;;;;32.42;25.48;;;17.20;99.90;;;;;;5092004;28;20504;-74
2022/04/26 09:53:23;;;;;;;34.20;25.40;;;17.30;99.90;;;;;;5093133;28;20471;-74
2022/04/26 09:55:49;;;;;;;34.47;24.80;;;17.90;99.90;;;;;;5093129;28;20020;-74
2022/04/26 09:58:19;;;;;;;31.33;25.17;;;18.30;99.90;;;;;;5092046;28;20073;-74
2022/04/26 10:00:47;;;;;;;28.08;24.05;;;18.60;99.90;;;;;;5093416;28;20386;-74
2022/04/26 10:03:15;;;;;;;34.83;24.88;;;18.90;99.90;;;;;;5093353;28;20024;-73
2022/04/26 10:05:45;;;;;;;30.15;23.92;;;20.20;99.90;;;;;;5091866;28;20035;-73
2022/04/26 10:08:13;;;;;;;27.20;23.33;;;21.00;97.50;;;;;;5092997;28;20170;-74
2022/04/26 10:10:39;;;;;;;27.30;22.63;;;21.70;92.70;;;;;;5091732;28;20028;-74
2022/04/26 10:15:52;;;;;;;26.92;23.10;;;19.20;99.90;;;;;;5092813;28;20097;-74
2022/04/26 10:18:27;;;;;;;26.50;22.63;;;17.50;99.90;;;;;;5091826;28;20072;-73
2022/04/26 10:20:53;;;;;;;39.75;26.23;;;17.20;99.90;;;;;;5092953;28;20028;-73
2022/04/26 10:23:18;;;;;;;31.85;25.25;;;17.00;99.90;;;;;;5091648;28;20123;-73
2022/04/26 10:26:14;;;;;;;28.55;23.95;;;15.90;99.90;;;;;;5091441;28;20473;-74
2022/04/26 10:29:01;;;;;;;32.15;23.35;;;15.70;99.90;;;;;;5092733;28;20070;-73
2022/04/26 10:31:49;;;;;;;32.20;24.85;;;15.70;99.90;;;;;;5096600;28;20031;-73
2022/04/26 10:36:54;;;;;;;32.63;26.42;;;15.80;99.90;;;;;;5129803;27;20550;-73
2022/04/26 10:39:21;;;;;;;30.92;25.83;;;15.20;99.90;;;;;;5026029;28;20502;-73
2022/04/26 10:41:47;;;;;;;35.75;25.63;;;15.00;99.90;;;;;;5027156;28;20087;-73
2022/04/26 10:44:22;;;;;;;34.92;25.02;;;15.50;99.90;;;;;;5025610;28;20021;-73
2022/04/26 10:49:42;;;;;;;35.20;24.83;;;16.00;99.90;;;;;;5123290;27;20508;-74
2022/04/26 10:57:27;;;;;;;31.00;22.88;;;15.30;99.90;;;;;;5127036;27;20125;-73
2022/04/26 10:59:58;;;;;;;29.70;24.00;;;15.10;99.90;;;;;;5110819;28;20035;-73
2022/04/26 11:02:26;;;;;;;30.48;23.50;;;14.80;99.90;;;;;;5109842;28;20474;-73
2022/04/26 11:05:13;;;;;;;33.58;25.15;;;14.80;99.90;;;;;;5111141;28;20581;-73
2022/04/26 11:07:41;;;;;;;33.08;25.17;;;14.80;99.90;;;;;;5110852;28;20440;-72
2022/04/26 11:10:08;;;;;;;33.20;24.65;;;14.90;99.90;;;;;;5110589;28;20016;-72
2022/04/26 11:12:37;;;;;;;38.20;28.55;;;14.90;99.90;;;;;;5109333;28;20032;-73
2022/04/26 11:15:08;;;;;;;33.50;27.20;;;14.70;99.90;;;;;;5110724;28;20470;-72
2022/04/26 11:17:34;;;;;;;31.50;24.60;;;14.60;99.90;;;;;;5110607;28;20443;-73
2022/04/26 11:20:06;;;;;;;32.22;23.92;;;14.60;99.90;;;;;;5109675;28;20389;-73
2022/04/26 11:22:32;;;;;;;32.92;23.95;;;14.40;99.90;;;;;;5092574;28;20024;-72
2022/04/26 11:28:05;;;;;;;33.90;23.77;;;14.60;99.90;;;;;;5109193;28;20027;-73
2022/04/26 11:30:35;;;;;;;31.88;23.77;;;14.50;99.90;;;;;;5110514;28;20055;-73
2022/04/26 11:35:53;;;;;;;31.98;24.13;;;14.10;99.90;;;;;;5103533;27;20135;-72
2022/04/26 11:38:18;;;;;;;36.75;25.63;;;13.90;99.90;;;;;;5070600;28;20052;-72
2022/04/26 11:40:48;;;;;;;35.60;25.27;;;13.80;99.90;;;;;;5070677;28;20090;-73
2022/04/26 11:43:16;;;;;;;35.67;26.08;;;13.90;99.90;;;;;;5070464;28;20066;-72
2022/04/26 11:45:44;;;;;;;33.72;26.48;;;13.80;99.90;;;;;;5102901;28;20471;-72
2022/04/26 11:48:18;;;;;;;35.72;27.83;;;13.80;99.90;;;;;;5070391;28;20025;-72
2022/04/26 11:50:46;;;;;;;38.03;26.45;;;13.90;99.90;;;;;;5070314;28;20398;-72
2022/04/26 11:53:16;;;;;;;34.08;25.55;;;14.00;99.90;;;;;;5070247;28;20384;-73
2022/04/26 11:55:43;;;;;;;34.25;24.60;;;14.20;99.90;;;;;;5068970;28;20119;-72
2022/04/26 11:58:18;;;;;;;32.90;25.67;;;14.20;99.90;;;;;;5070338;28;20052;-72
2022/04/26 12:01:07;;;;;;;31.63;24.58;;;14.20;99.90;;;;;;5085378;28;20028;-72
2022/04/26 12:03:49;;;;;;;34.33;25.75;;;14.50;99.90;;;;;;5070010;28;20044;-72
2022/04/26 12:06:19;;;;;;;28.40;22.60;;;14.90;99.90;;;;;;5099220;28;20017;-72
2022/04/26 12:08:53;;;;;;;30.85;21.13;;;14.90;99.90;;;;;;5070042;28;20387;-72
2022/04/26 12:11:24;;;;;;;27.60;21.25;;;15.20;99.90;;;;;;5069922;28;20020;-73
2022/04/26 12:14:01;;;;;;;28.65;21.15;;;15.50;99.90;;;;;;5068460;28;20483;-73
2022/04/26 12:16:29;;;;;;;26.30;19.92;;;15.80;99.90;;;;;;5069734;28;20028;-73
2022/04/26 12:18:57;;;;;;;25.40;19.60;;;15.90;99.90;;;;;;5068315;28;20536;-73
2022/04/26 12:21:26;;;;;;;25.55;19.33;;;16.10;99.90;;;;;;5069559;28;20479;-73
2022/04/26 12:24:13;;;;;;;24.77;18.60;;;16.30;99.90;;;;;;5069801;28;20028;-73
2022/04/26 12:27:01;;;;;;;23.05;18.83;;;16.40;99.90;;;;;;5069558;28;20475;-73
2022/04/26 12:29:29;;;;;;;21.38;18.10;;;16.70;99.90;;;;;;5069376;28;20032;-72
2022/04/26 12:31:55;;;;;;;23.83;18.40;;;16.30;99.90;;;;;;5069337;28;20372;-73
2022/04/26 12:34:24;;;;;;;22.48;17.73;;;16.20;99.90;;;;;;5069105;28;20095;-75
2022/04/26 12:36:59;;;;;;;22.95;16.27;;;16.40;99.90;;;;;;5069296;28;20024;-73
2022/04/26 12:39:40;;;;;;;18.75;15.70;;;16.90;99.90;;;;;;5069145;28;20022;-73
2022/04/26 12:42:07;;;;;;;21.42;16.38;;;17.20;99.90;;;;;;5069108;28;20103;-72
2022/04/26 12:44:34;;;;;;;18.67;15.52;;;16.80;99.90;;;;;;5101319;28;20426;-72
2022/04/26 12:50:39;;;;;;;25.15;16.75;;;17.40;99.90;;;;;;5082589;28;20021;-73
2022/04/26 12:52:58;;;;;;;20.40;16.13;;;17.80;99.90;;;;;;5055623;28;20043;-73
2022/04/26 12:55:42;;;;;;;22.63;17.30;;;17.90;99.90;;;;;;5055742;28;20021;-73
2022/04/26 12:58:09;;;;;;;23.52;17.55;;;18.00;99.90;;;;;;5052234;28;20048;-73
2022/04/26 13:00:39;;;;;;;20.70;16.67;;;17.00;99.90;;;;;;5052629;28;20067;-72
2022/04/26 13:03:07;;;;;;;20.60;16.63;;;16.90;99.90;;;;;;5055384;28;20616;-73
2022/04/26 13:05:50;;;;;;;20.63;17.60;;;17.00;99.90;;;;;;5049556;28;20033;-73
2022/04/26 13:08:19;;;;;;;25.98;17.90;;;16.90;99.90;;;;;;5043291;28;20056;-72
2022/04/26 13:10:45;;;;;;;24.73;17.98;;;16.40;99.90;;;;;;5055376;28;20497;-74
2022/04/26 13:13:12;;;;;;;19.65;16.85;;;16.70;99.90;;;;;;5045441;28;20503;-73
2022/04/26 13:15:41;;;;;;;24.65;17.73;;;16.70;99.90;;;;;;5039077;28;20033;-72
2022/04/26 13:18:07;;;;;;;23.45;17.05;;;16.60;99.90;;;;;;5050698;28;20506;-74
2022/04/26 13:20:33;;;;;;;20.23;16.92;;;16.30;99.90;;;;;;5041717;28;20025;-72
2022/04/26 13:22:59;;;;;;;20.58;16.58;;;15.80;99.90;;;;;;5085164;28;20527;-73
2022/04/26 13:25:25;;;;;;;23.35;18.55;;;15.50;99.90;;;;;;5052869;28;20116;-73
2022/04/26 13:27:51;;;;;;;22.88;18.55;;;15.40;99.90;;;;;;5054781;28;20029;-73
2022/04/26 13:30:17;;;;;;;27.10;18.70;;;15.40;99.90;;;;;;5049239;28;20030;-72
2022/04/26 13:32:43;;;;;;;27.77;19.20;;;15.20;99.90;;;;;;5034702;28;20033;-72
2022/04/26 13:35:09;;;;;;;22.83;17.83;;;15.30;99.90;;;;;;5037591;28;20118;-73
2022/04/26 13:37:35;;;;;;;24.73;18.10;;;15.20;99.90;;;;;;5047474;28;20040;-72
2022/04/26 13:40:02;;;;;;;24.58;18.23;;;15.20;99.90;;;;;;5036735;28;20041;-73
2022/04/26 13:42:30;;;;;;;23.77;19.00;;;14.60;99.90;;;;;;5039041;28;20067;-72
2022/04/26 13:44:56;;;;;;;24.50;19.02;;;14.30;99.90;;;;;;5064955;28;20634;-72
2022/04/26 13:47:22;;;;;;;26.10;19.90;;;13.80;99.90;;;;;;5042895;28;20025;-72
2022/04/26 13:49:48;;;;;;;23.98;19.48;;;13.30;99.90;;;;;;5072266;28;20024;-73
2022/04/26 13:52:13;;;;;;;27.70;20.48;;;13.00;99.90;;;;;;5054597;28;20489;-72
2022/04/26 13:54:41;;;;;;;29.52;23.50;;;12.70;99.90;;;;;;5059551;28;20025;-72
2022/04/26 13:57:06;;;;;;;26.30;20.90;;;12.50;99.90;;;;;;5033800;28;20032;-72
2022/04/26 13:59:32;;;;;;;31.92;24.77;;;12.30;99.90;;;;;;5035410;28;20443;-73
2022/04/26 14:01:58;;;;;;;37.88;27.02;;;12.20;99.90;;;;;;5034581;28;20013;-73
2022/04/26 14:04:24;;;;;;;31.88;25.42;;;12.20;99.90;;;;;;5049918;28;20403;-72
2022/04/26 14:06:49;;;;;;;33.17;24.85;;;12.00;99.90;;;;;;5054219;28;20032;-72
2022/04/26 14:09:17;;;;;;;35.65;28.00;;;12.10;99.90;;;;;;5039317;28;20026;-74
2022/04/26 14:11:43;;;;;;;38.15;26.60;;;12.20;99.90;;;;;;5034460;28;20021;-72
2022/04/26 14:22:30;;;;;;;40.78;28.70;;;12.30;99.90;;;;;;5042184;28;20504;-71
2022/04/26 14:24:58;;;;;;;39.33;28.48;;;12.40;99.90;;;;;;5078750;28;20391;-71
2022/04/26 14:27:24;;;;;;;36.10;29.30;;;12.40;99.90;;;;;;5042198;28;20654;-73
2022/04/26 14:29:50;;;;;;;40.97;30.83;;;12.30;99.90;;;;;;5084897;28;20123;-73
2022/04/26 14:32:15;;;;;;;41.75;32.35;;;12.30;99.90;;;;;;5038078;28;20025;-73
2022/04/26 14:34:42;;;;;;;42.65;31.45;;;12.40;99.90;;;;;;5050751;28;20120;-73
2022/04/26 14:37:09;;;;;;;45.47;33.08;;;12.40;99.90;;;;;;5056342;28;20099;-73
2022/04/26 14:39:36;;;;;;;46.58;33.63;;;12.50;99.90;;;;;;5057882;28;20048;-72
2022/04/26 14:42:03;;;;;;;43.50;32.17;;;12.70;99.90;;;;;;5054096;28;20095;-73
2022/04/26 14:44:28;;;;;;;33.42;27.92;;;12.80;99.90;;;;;;5069590;28;20325;-73
2022/04/26 14:46:54;;;;;;;39.45;28.77;;;12.80;99.90;;;;;;5053628;28;20039;-73
2022/04/26 14:49:20;;;;;;;42.08;31.20;;;12.80;99.90;;;;;;5042939;28;20033;-73
2022/04/26 14:51:46;;;;;;;42.28;32.95;;;12.80;99.90;;;;;;5064783;28;20028;-73
2022/04/26 14:54:12;;;;;;;42.55;32.45;;;12.90;99.90;;;;;;5072030;28;20029;-72
2022/04/26 14:56:38;;;;;;;42.67;32.38;;;12.70;99.90;;;;;;5072293;28;20031;-72
2022/04/26 14:59:05;;;;;;;43.13;29.60;;;12.70;99.90;;;;;;5072260;28;20028;-72
2022/04/26 15:01:31;;;;;;;40.15;28.88;;;12.60;99.90;;;;;;5073484;28;20153;-72
2022/04/26 15:03:57;;;;;;;35.05;28.38;;;12.60;99.90;;;;;;5073181;28;20057;-72
2022/04/26 15:06:22;;;;;;;28.73;22.40;;;12.50;99.90;;;;;;5050502;28;20034;-72
2022/04/26 15:11:34;;;;;;;28.70;20.40;;;12.40;99.90;;;;;;5033207;28;20441;-72
2022/04/26 15:16:47;;;;;;;29.45;20.88;;;12.30;99.90;;;;;;5049371;28;20022;-72
2022/04/26 15:19:14;;;;;;;25.30;19.63;;;12.30;99.90;;;;;;5051022;28;20029;-73
2022/04/26 15:21:43;;;;;;;22.30;17.80;;;12.20;99.90;;;;;;5053176;28;20025;-72
2022/04/26 15:24:10;;;;;;;26.55;17.50;;;12.20;99.90;;;;;;5040333;28;20025;-72
2022/04/26 15:26:36;;;;;;;19.77;16.27;;;12.20;99.90;;;;;;5032428;28;20061;-72
2022/04/26 15:29:03;;;;;;;19.65;14.13;;;12.30;99.90;;;;;;5032600;28;20509;-72
2022/04/26 15:31:28;;;;;;;16.17;13.88;;;12.30;99.90;;;;;;5033046;28;20048;-72
2022/04/26 15:33:54;;;;;;;21.65;15.00;;;12.20;99.90;;;;;;5032842;28;20491;-72
2022/04/26 15:36:20;;;;;;;21.10;16.58;;;12.20;99.90;;;;;;5047929;28;20022;-72
2022/04/26 15:38:47;;;;;;;22.05;17.05;;;12.20;99.90;;;;;;5033004;28;20033;-72
2022/04/26 15:41:14;;;;;;;16.90;12.55;;;12.20;99.90;;;;;;5064949;28;20567;-72
2022/04/26 15:43:40;;;;;;;19.67;13.13;;;12.00;99.90;;;;;;5032932;28;20155;-72
2022/04/26 15:46:08;;;;;;;16.23;12.15;;;12.20;99.90;;;;;;5033054;28;20026;-72
2022/04/26 15:48:37;;;;;;;17.55;12.95;;;12.10;99.90;;;;;;5033046;28;20060;-72
2022/04/26 15:51:04;;;;;;;16.65;12.95;;;12.10;99.90;;;;;;5048205;28;20028;-72
2022/04/26 15:53:30;;;;;;;14.82;12.98;;;12.00;99.90;;;;;;5033233;28;20026;-72
2022/04/26 15:55:55;;;;;;;18.38;13.80;;;11.90;99.90;;;;;;5048199;28;20160;-72
2022/04/26 15:58:21;;;;;;;18.27;13.75;;;11.70;99.90;;;;;;5032981;28;20025;-73
2022/04/26 16:00:47;;;;;;;20.92;14.32;;;11.70;99.90;;;;;;5032747;28;20533;-72
2022/04/26 16:03:12;;;;;;;15.43;12.90;;;11.60;99.90;;;;;;5065045;28;20026;-72
2022/04/26 16:05:40;;;;;;;17.77;13.30;;;11.60;99.90;;;;;;5032879;28;20415;-72
2022/04/26 16:08:07;;;;;;;15.45;12.32;;;11.70;99.90;;;;;;5032854;28;20104;-72
2022/04/26 16:20:28;;;;;;;15.27;13.02;;;11.80;99.90;;;;;;5032840;28;20033;-72
2022/04/26 16:21:35;;;;;;;18.70;15.15;;;11.90;99.90;;;;;;5034599;28;20032;-72
2022/04/26 16:24:00;;;;;;;23.83;17.13;;;12.00;99.90;;;;;;5036317;28;20384;-72
2022/04/26 16:26:27;;;;;;;20.80;16.27;;;12.20;99.90;;;;;;5036294;28;20480;-72
2022/04/26 16:28:53;;;;;;;20.67;17.05;;;12.20;99.90;;;;;;5036507;28;20442;-72
2022/04/26 16:31:24;;;;;;;20.00;16.60;;;12.20;99.90;;;;;;5036127;28;20472;-72
2022/04/26 16:33:50;;;;;;;22.55;17.23;;;12.30;99.90;;;;;;5035860;28;20037;-72
2022/04/26 16:36:17;;;;;;;24.67;17.08;;;12.30;99.90;;;;;;5036159;28;20037;-72
2022/04/26 16:38:43;;;;;;;21.13;16.70;;;12.30;99.90;;;;;;5035959;28;20361;-72
2022/04/26 16:41:09;;;;;;;21.00;18.00;;;12.40;99.90;;;;;;5036120;28;20028;-72
2022/04/26 16:43:34;;;;;;;22.85;17.98;;;12.40;99.90;;;;;;5035906;28;20018;-72
2022/04/26 16:46:01;;;;;;;26.30;18.88;;;12.50;99.90;;;;;;5067964;28;20396;-72
2022/04/26 16:48:27;;;;;;;24.77;19.08;;;12.40;99.90;;;;;;5035936;28;20494;-72
2022/04/26 16:50:53;;;;;;;28.63;19.55;;;12.60;99.90;;;;;;5067907;28;20018;-72
2022/04/26 16:53:18;;;;;;;25.63;19.00;;;12.80;99.90;;;;;;5035900;28;20109;-72
2022/04/26 16:55:44;;;;;;;27.40;20.95;;;12.80;99.90;;;;;;5035619;28;20025;-72
2022/04/26 16:58:09;;;;;;;25.08;19.88;;;12.90;99.90;;;;;;5035642;28;20079;-72
2022/04/26 17:00:35;;;;;;;25.77;20.20;;;13.00;99.90;;;;;;5035671;28;20368;-72
2022/04/26 17:03:01;;;;;;;28.75;21.90;;;13.10;99.90;;;;;;5035498;28;20021;-72
2022/04/26 17:05:27;;;;;;;25.83;21.13;;;13.10;99.90;;;;;;5067456;28;20060;-72
2022/04/26 17:07:56;;;;;;;27.70;18.77;;;12.80;99.90;;;;;;5035420;28;20025;-72